TUI960 EDDK-LDRI
Flight info
| Callsign | TUI960 |
|---|---|
| Flight time | N/A |
| Altitude | 35000 |
| Route | KUMIK1R KUMIK L603 TESGA DCT ESATI DCT DETEV DCT DINKU M867 XERUM DCT BAVAX DCT RADIZ DCT VEKEN DCT GIRDA |
| Aircraft | B738/M-SDE2E3FGHIRWXY/LB1 |
Departure
| Time | N/A |
|---|---|
| Airport | Cologne Bonn Airport (EDDK) |
Arrival
| Time | 2026-04-21 15:51 |
|---|---|
| Airport | Rijeka Airport (LDRI) |
| Time | Latitude | Longitude | Altitude | Speed | Heading |
|---|---|---|---|---|---|
| 2026-04-21 14:56 | 48.16395 | 11.81347 | 35146 ft | 488 kts | 139° |
| 2026-04-21 14:56 | 48.13861 | 11.84738 | 35144 ft | 488 kts | 139° |
| 2026-04-21 14:57 | 48.08827 | 11.91550 | 35133 ft | 487 kts | 139° |
| 2026-04-21 14:57 | 48.03844 | 11.98341 | 35144 ft | 487 kts | 139° |
| 2026-04-21 14:58 | 47.98836 | 12.05161 | 35112 ft | 487 kts | 139° |
| 2026-04-21 14:58 | 47.93820 | 12.11968 | 35120 ft | 487 kts | 139° |
| 2026-04-21 14:59 | 47.88797 | 12.18760 | 35115 ft | 488 kts | 139° |
| 2026-04-21 14:59 | 47.83759 | 12.25555 | 35119 ft | 488 kts | 139° |
| 2026-04-21 15:00 | 47.78711 | 12.32346 | 35106 ft | 489 kts | 139° |
| 2026-04-21 15:00 | 47.73649 | 12.39137 | 35095 ft | 491 kts | 140° |
| 2026-04-21 15:01 | 47.68599 | 12.45896 | 35089 ft | 492 kts | 140° |
| 2026-04-21 15:01 | 47.63484 | 12.52679 | 35102 ft | 493 kts | 142° |
| 2026-04-21 15:01 | 47.60703 | 12.55644 | 35076 ft | 491 kts | 153° |
| 2026-04-21 15:02 | 47.57721 | 12.58083 | 35103 ft | 490 kts | 154° |
| 2026-04-21 15:02 | 47.51688 | 12.62810 | 35075 ft | 491 kts | 155° |
| 2026-04-21 15:03 | 47.45634 | 12.67580 | 35089 ft | 492 kts | 155° |
| 2026-04-21 15:03 | 47.39603 | 12.72394 | 35079 ft | 493 kts | 155° |
| 2026-04-21 15:04 | 47.33608 | 12.77196 | 35091 ft | 494 kts | 154° |
| 2026-04-21 15:04 | 47.27555 | 12.82034 | 35064 ft | 494 kts | 155° |
| 2026-04-21 15:05 | 47.21495 | 12.86860 | 35075 ft | 495 kts | 155° |
| 2026-04-21 15:05 | 47.12414 | 12.94062 | 35061 ft | 493 kts | 155° |
| 2026-04-21 15:06 | 47.06379 | 12.98837 | 35080 ft | 491 kts | 155° |
| 2026-04-21 15:06 | 47.00349 | 13.03595 | 35033 ft | 492 kts | 155° |
| 2026-04-21 15:07 | 46.94326 | 13.08334 | 35022 ft | 491 kts | 155° |
| 2026-04-21 15:07 | 46.88347 | 13.13025 | 35043 ft | 491 kts | 155° |
| 2026-04-21 15:08 | 46.82311 | 13.17748 | 35007 ft | 492 kts | 156° |
| 2026-04-21 15:08 | 46.76259 | 13.22474 | 34987 ft | 493 kts | 156° |
| 2026-04-21 15:09 | 46.70202 | 13.27192 | 35007 ft | 494 kts | 156° |
| 2026-04-21 15:09 | 46.64123 | 13.31915 | 35003 ft | 495 kts | 156° |
| 2026-04-21 15:10 | 46.58081 | 13.36598 | 34977 ft | 495 kts | 156° |
| 2026-04-21 15:10 | 46.51963 | 13.41182 | 34981 ft | 494 kts | 159° |
| 2026-04-21 15:11 | 46.45761 | 13.45512 | 35002 ft | 495 kts | 159° |
| 2026-04-21 15:11 | 46.39542 | 13.49826 | 34996 ft | 497 kts | 159° |
| 2026-04-21 15:12 | 46.33302 | 13.54192 | 34987 ft | 497 kts | 160° |
| 2026-04-21 15:12 | 46.30179 | 13.56384 | 34835 ft | 502 kts | 160° |
| 2026-04-21 15:12 | 46.27003 | 13.58609 | 34244 ft | 508 kts | 160° |
| 2026-04-21 15:13 | 46.23825 | 13.60837 | 33558 ft | 508 kts | 160° |
| 2026-04-21 15:13 | 46.20635 | 13.63071 | 32814 ft | 509 kts | 160° |
| 2026-04-21 15:13 | 46.17451 | 13.65298 | 32099 ft | 509 kts | 160° |
| 2026-04-21 15:13 | 46.14304 | 13.67497 | 31365 ft | 509 kts | 161° |
| 2026-04-21 15:14 | 46.11076 | 13.69752 | 30716 ft | 508 kts | 161° |
| 2026-04-21 15:14 | 46.07917 | 13.71956 | 30340 ft | 500 kts | 161° |
| 2026-04-21 15:14 | 46.04845 | 13.74094 | 29819 ft | 496 kts | 161° |
| 2026-04-21 15:14 | 46.01748 | 13.76244 | 29266 ft | 491 kts | 161° |
| 2026-04-21 15:15 | 45.98691 | 13.78365 | 28747 ft | 486 kts | 161° |
| 2026-04-21 15:15 | 45.95662 | 13.80462 | 28182 ft | 480 kts | 161° |
| 2026-04-21 15:15 | 45.92666 | 13.82536 | 27708 ft | 474 kts | 160° |
| 2026-04-21 15:15 | 45.89707 | 13.84582 | 27179 ft | 470 kts | 160° |
| 2026-04-21 15:16 | 45.86775 | 13.86602 | 26664 ft | 465 kts | 160° |
| 2026-04-21 15:16 | 45.83867 | 13.88602 | 26153 ft | 461 kts | 160° |
| 2026-04-21 15:16 | 45.80981 | 13.90587 | 25659 ft | 457 kts | 160° |
| 2026-04-21 15:16 | 45.78120 | 13.92553 | 25163 ft | 454 kts | 160° |
| 2026-04-21 15:17 | 45.75286 | 13.94500 | 24676 ft | 450 kts | 160° |
| 2026-04-21 15:17 | 45.72463 | 13.96437 | 24180 ft | 447 kts | 160° |
| 2026-04-21 15:17 | 45.69667 | 13.98352 | 23665 ft | 444 kts | 161° |
| 2026-04-21 15:17 | 45.66892 | 14.00252 | 23120 ft | 441 kts | 160° |
| 2026-04-21 15:18 | 45.64137 | 14.02136 | 22584 ft | 437 kts | 160° |
| 2026-04-21 15:18 | 45.61405 | 14.04002 | 22097 ft | 432 kts | 160° |
| 2026-04-21 15:18 | 45.58708 | 14.05843 | 21628 ft | 427 kts | 160° |
| 2026-04-21 15:18 | 45.56037 | 14.07663 | 21138 ft | 424 kts | 160° |
| 2026-04-21 15:19 | 45.53416 | 14.09447 | 20669 ft | 421 kts | 160° |
| 2026-04-21 15:19 | 45.50787 | 14.11235 | 20178 ft | 417 kts | 159° |
| 2026-04-21 15:19 | 45.48326 | 14.13455 | 19686 ft | 424 kts | 141° |
| 2026-04-21 15:19 | 45.46471 | 14.16713 | 19254 ft | 426 kts | 120° |
| 2026-04-21 15:20 | 45.45204 | 14.20522 | 18817 ft | 423 kts | 115° |
| 2026-04-21 15:20 | 45.44020 | 14.24353 | 18336 ft | 421 kts | 114° |
| 2026-04-21 15:20 | 45.42852 | 14.28158 | 17821 ft | 418 kts | 114° |
| 2026-04-21 15:20 | 45.41684 | 14.31934 | 17319 ft | 415 kts | 114° |
| 2026-04-21 15:21 | 45.40518 | 14.35668 | 16837 ft | 411 kts | 114° |
| 2026-04-21 15:21 | 45.39354 | 14.39357 | 16386 ft | 406 kts | 114° |
| 2026-04-21 15:21 | 45.38197 | 14.43000 | 15925 ft | 402 kts | 114° |
| 2026-04-21 15:21 | 45.37045 | 14.46609 | 15471 ft | 398 kts | 114° |
| 2026-04-21 15:22 | 45.35904 | 14.50176 | 15024 ft | 394 kts | 114° |
| 2026-04-21 15:22 | 45.34774 | 14.53700 | 14568 ft | 390 kts | 114° |
| 2026-04-21 15:22 | 45.33670 | 14.57143 | 14139 ft | 386 kts | 114° |
| 2026-04-21 15:22 | 45.32557 | 14.60604 | 13673 ft | 383 kts | 114° |
| 2026-04-21 15:23 | 45.31456 | 14.64027 | 13176 ft | 379 kts | 113° |
| 2026-04-21 15:23 | 45.30364 | 14.67419 | 12712 ft | 375 kts | 113° |
| 2026-04-21 15:23 | 45.29284 | 14.70771 | 12246 ft | 371 kts | 113° |
| 2026-04-21 15:23 | 45.28212 | 14.74090 | 11795 ft | 368 kts | 113° |
| 2026-04-21 15:24 | 45.27150 | 14.77375 | 11365 ft | 364 kts | 112° |
| 2026-04-21 15:24 | 45.26092 | 14.80647 | 10855 ft | 363 kts | 113° |
| 2026-04-21 15:24 | 45.25042 | 14.83885 | 10542 ft | 356 kts | 112° |
| 2026-04-21 15:24 | 45.24025 | 14.87019 | 10384 ft | 344 kts | 112° |
| 2026-04-21 15:25 | 45.23040 | 14.90050 | 10252 ft | 333 kts | 113° |
| 2026-04-21 15:25 | 45.22086 | 14.92986 | 10115 ft | 322 kts | 113° |
| 2026-04-21 15:25 | 45.21173 | 14.95794 | 10029 ft | 311 kts | 113° |
| 2026-04-21 15:25 | 45.20284 | 14.98520 | 9972 ft | 299 kts | 113° |
| 2026-04-21 15:26 | 45.19399 | 15.01231 | 9445 ft | 304 kts | 112° |
| 2026-04-21 15:26 | 45.18308 | 15.03786 | 9075 ft | 306 kts | 133° |
| 2026-04-21 15:26 | 45.16549 | 15.05424 | 8760 ft | 305 kts | 160° |
| 2026-04-21 15:26 | 45.14494 | 15.05896 | 8617 ft | 296 kts | 182° |
| 2026-04-21 15:27 | 45.12477 | 15.05552 | 8507 ft | 287 kts | 189° |
| 2026-04-21 15:27 | 45.10528 | 15.05111 | 8403 ft | 278 kts | 189° |
| 2026-04-21 15:27 | 45.08671 | 15.04702 | 8326 ft | 262 kts | 189° |
| 2026-04-21 15:27 | 45.06945 | 15.04334 | 8196 ft | 247 kts | 188° |
| 2026-04-21 15:28 | 45.05378 | 15.03563 | 8049 ft | 233 kts | 219° |
| 2026-04-21 15:28 | 45.04347 | 15.01899 | 7821 ft | 223 kts | 242° |
| 2026-04-21 15:28 | 45.03785 | 14.99879 | 7486 ft | 218 kts | 256° |
| 2026-04-21 15:28 | 45.03376 | 14.97827 | 7160 ft | 215 kts | 256° |
| 2026-04-21 15:29 | 45.02979 | 14.95803 | 6859 ft | 213 kts | 256° |
| 2026-04-21 15:29 | 45.02581 | 14.93801 | 6541 ft | 209 kts | 255° |
| 2026-04-21 15:29 | 45.02188 | 14.91837 | 6276 ft | 208 kts | 257° |
| 2026-04-21 15:29 | 45.01798 | 14.89894 | 5988 ft | 201 kts | 255° |
| 2026-04-21 15:30 | 45.01420 | 14.88028 | 5846 ft | 198 kts | 256° |
| 2026-04-21 15:30 | 45.01034 | 14.86130 | 5734 ft | 199 kts | 255° |
| 2026-04-21 15:30 | 45.00649 | 14.84246 | 5577 ft | 203 kts | 255° |
| 2026-04-21 15:30 | 45.00251 | 14.82308 | 5304 ft | 206 kts | 255° |
| 2026-04-21 15:31 | 45.00101 | 14.80371 | 5045 ft | 199 kts | 287° |
| 2026-04-21 15:31 | 45.00750 | 14.78768 | 4834 ft | 184 kts | 323° |
| 2026-04-21 15:31 | 45.01748 | 14.77664 | 4614 ft | 182 kts | 331° |
| 2026-04-21 15:31 | 45.02770 | 14.76621 | 4392 ft | 181 kts | 330° |
| 2026-04-21 15:32 | 45.03795 | 14.75573 | 4172 ft | 182 kts | 331° |
| 2026-04-21 15:32 | 45.04822 | 14.74521 | 3952 ft | 183 kts | 331° |
| 2026-04-21 15:32 | 45.05857 | 14.73460 | 3757 ft | 184 kts | 331° |
| 2026-04-21 15:32 | 45.06910 | 14.72404 | 3512 ft | 185 kts | 329° |
| 2026-04-21 15:33 | 45.07936 | 14.71356 | 3345 ft | 177 kts | 329° |
| 2026-04-21 15:33 | 45.08915 | 14.70345 | 3128 ft | 172 kts | 328° |
| 2026-04-21 15:33 | 45.09870 | 14.69354 | 2906 ft | 169 kts | 328° |
| 2026-04-21 15:33 | 45.10816 | 14.68370 | 2691 ft | 166 kts | 328° |
| 2026-04-21 15:34 | 45.11722 | 14.67426 | 2453 ft | 158 kts | 329° |
| 2026-04-21 15:34 | 45.12599 | 14.66515 | 2288 ft | 158 kts | 329° |
| 2026-04-21 15:34 | 45.13471 | 14.65609 | 2091 ft | 157 kts | 327° |
| 2026-04-21 15:34 | 45.14367 | 14.64675 | 1848 ft | 160 kts | 328° |
| 2026-04-21 15:35 | 45.15251 | 14.63754 | 1630 ft | 154 kts | 328° |
| 2026-04-21 15:35 | 45.16106 | 14.62865 | 1417 ft | 150 kts | 328° |
| 2026-04-21 15:35 | 45.16935 | 14.62004 | 1229 ft | 146 kts | 326° |
| 2026-04-21 15:35 | 45.17764 | 14.61142 | 1043 ft | 147 kts | 325° |
| 2026-04-21 15:36 | 45.18573 | 14.60302 | 837 ft | 141 kts | 323° |
| 2026-04-21 15:36 | 45.19347 | 14.59491 | 672 ft | 138 kts | 323° |
| 2026-04-21 15:36 | 45.20119 | 14.58683 | 486 ft | 137 kts | 323° |
| 2026-04-21 15:36 | 45.20886 | 14.57887 | 279 ft | 137 kts | 322° |
| 2026-04-21 15:37 | 45.21619 | 14.57121 | 354 ft | 120 kts | 321° |
| 2026-04-21 15:37 | 45.22217 | 14.56493 | 274 ft | 104 kts | 323° |
| 2026-04-21 15:37 | 45.22826 | 14.55855 | 484 ft | 117 kts | 325° |
| 2026-04-21 15:37 | 45.23565 | 14.55105 | 1029 ft | 147 kts | 324° |
| 2026-04-21 15:38 | 45.24489 | 14.54120 | 1337 ft | 194 kts | 322° |
| 2026-04-21 15:38 | 45.25299 | 14.52457 | 1996 ft | 212 kts | 295° |
| 2026-04-21 15:38 | 45.25577 | 14.50386 | 2559 ft | 214 kts | 268° |
| 2026-04-21 15:38 | 45.25238 | 14.48276 | 2776 ft | 230 kts | 245° |
| 2026-04-21 15:39 | 45.24285 | 14.46409 | 2953 ft | 231 kts | 223° |
| 2026-04-21 15:39 | 45.23148 | 14.44920 | 2967 ft | 213 kts | 221° |
| 2026-04-21 15:39 | 45.22105 | 14.43522 | 2982 ft | 202 kts | 221° |
| 2026-04-21 15:39 | 45.21010 | 14.42435 | 3004 ft | 194 kts | 193° |
| 2026-04-21 15:40 | 45.19706 | 14.42469 | 3022 ft | 187 kts | 153° |
| 2026-04-21 15:40 | 45.18566 | 14.43319 | 3027 ft | 185 kts | 145° |
| 2026-04-21 15:40 | 45.17459 | 14.44255 | 3017 ft | 184 kts | 145° |
| 2026-04-21 15:40 | 45.16732 | 14.44876 | 3009 ft | 183 kts | 144° |
| 2026-04-21 15:41 | 45.15638 | 14.45807 | 3017 ft | 185 kts | 144° |
| 2026-04-21 15:41 | 45.14534 | 14.46755 | 3020 ft | 187 kts | 144° |
| 2026-04-21 15:41 | 45.13437 | 14.47747 | 3022 ft | 186 kts | 142° |
| 2026-04-21 15:41 | 45.12354 | 14.48743 | 3023 ft | 186 kts | 142° |
| 2026-04-21 15:42 | 45.11283 | 14.49724 | 3015 ft | 182 kts | 142° |
| 2026-04-21 15:42 | 45.10214 | 14.50705 | 3027 ft | 184 kts | 142° |
| 2026-04-21 15:42 | 45.09132 | 14.51697 | 3031 ft | 186 kts | 143° |
| 2026-04-21 15:42 | 45.08045 | 14.52690 | 3026 ft | 186 kts | 143° |
| 2026-04-21 15:43 | 45.06930 | 14.53712 | 3054 ft | 202 kts | 143° |
| 2026-04-21 15:43 | 45.05742 | 14.54799 | 3034 ft | 208 kts | 143° |
| 2026-04-21 15:43 | 45.04531 | 14.55900 | 3022 ft | 206 kts | 143° |
| 2026-04-21 15:43 | 45.03325 | 14.56996 | 3024 ft | 206 kts | 143° |
| 2026-04-21 15:44 | 45.02147 | 14.58127 | 3015 ft | 203 kts | 135° |
| 2026-04-21 15:44 | 45.01226 | 14.59605 | 3027 ft | 199 kts | 124° |
| 2026-04-21 15:44 | 45.00367 | 14.61131 | 3024 ft | 198 kts | 124° |
| 2026-04-21 15:44 | 44.99628 | 14.62770 | 3005 ft | 199 kts | 104° |
| 2026-04-21 15:45 | 44.99666 | 14.64666 | 3031 ft | 195 kts | 70° |
| 2026-04-21 15:45 | 45.00207 | 14.66438 | 3011 ft | 199 kts | 65° |
| 2026-04-21 15:45 | 45.00792 | 14.68206 | 3031 ft | 196 kts | 65° |
| 2026-04-21 15:45 | 45.01370 | 14.69886 | 3000 ft | 185 kts | 65° |
| 2026-04-21 15:46 | 45.02104 | 14.71229 | 2980 ft | 167 kts | 30° |
| 2026-04-21 15:46 | 45.03216 | 14.71317 | 3044 ft | 165 kts | 355° |
| 2026-04-21 15:46 | 45.04343 | 14.71011 | 3029 ft | 165 kts | 356° |
| 2026-04-21 15:46 | 45.05458 | 14.70750 | 3021 ft | 164 kts | 356° |
| 2026-04-21 15:47 | 45.06586 | 14.70491 | 3041 ft | 161 kts | 355° |
| 2026-04-21 15:47 | 45.07684 | 14.70240 | 3020 ft | 157 kts | 355° |
| 2026-04-21 15:47 | 45.08777 | 14.69990 | 3036 ft | 164 kts | 354° |
| 2026-04-21 15:47 | 45.09840 | 14.69297 | 2939 ft | 175 kts | 329° |
| 2026-04-21 15:48 | 45.10846 | 14.68290 | 2699 ft | 178 kts | 329° |
| 2026-04-21 15:48 | 45.11849 | 14.67278 | 2458 ft | 175 kts | 329° |
| 2026-04-21 15:48 | 45.12814 | 14.66286 | 2235 ft | 168 kts | 328° |
| 2026-04-21 15:48 | 45.13744 | 14.65322 | 2024 ft | 163 kts | 328° |
| 2026-04-21 15:49 | 45.14655 | 14.64374 | 1823 ft | 159 kts | 328° |
| 2026-04-21 15:49 | 45.15553 | 14.63441 | 1585 ft | 160 kts | 329° |
| 2026-04-21 15:49 | 45.16445 | 14.62515 | 1366 ft | 155 kts | 326° |
| 2026-04-21 15:49 | 45.17295 | 14.61629 | 1183 ft | 151 kts | 327° |
| 2026-04-21 15:50 | 45.18125 | 14.60767 | 974 ft | 144 kts | 324° |
| 2026-04-21 15:50 | 45.18909 | 14.59948 | 795 ft | 136 kts | 323° |
| 2026-04-21 15:50 | 45.19669 | 14.59130 | 643 ft | 139 kts | 324° |
| 2026-04-21 15:50 | 45.20464 | 14.58336 | 394 ft | 136 kts | 323° |
| 2026-04-21 15:51 | 45.21173 | 14.57589 | 257 ft | 117 kts | 323° |
| 2026-04-21 15:51 | 45.21666 | 14.57080 | 262 ft | 59 kts | 324° |
| 2026-04-21 15:51 | 45.21852 | 14.56888 | 263 ft | 22 kts | 324° |
| 2026-04-21 15:51 | 45.21974 | 14.56763 | 265 ft | 20 kts | 323° |
| 2026-04-21 15:52 | 45.22048 | 14.56772 | 265 ft | 2 kts | 78° |
| 2026-04-21 15:52 | 45.22041 | 14.56803 | 266 ft | 6 kts | 107° |
| 2026-04-21 15:52 | 45.22020 | 14.56905 | 266 ft | 13 kts | 105° |
| 2026-04-21 15:52 | 45.21971 | 14.57014 | 265 ft | 13 kts | 142° |
| 2026-04-21 15:53 | 45.21925 | 14.57062 | 265 ft | 4 kts | 141° |
| 2026-04-21 15:53 | 45.21921 | 14.57104 | 264 ft | 5 kts | 84° |
| 2026-04-21 15:53 | 45.21916 | 14.57146 | 264 ft | 0 kts | 105° |
| 2026-04-21 15:53 | 45.21916 | 14.57148 | 264 ft | 0 kts | 105° |